Time;durP1;ratioP1;P1;durP2;ratioP2;P2;SDS_P1;SDS_P2;PMS_P1;PMS_P2;Temp;Humidity;BMP_temperature;BMP_pressure;BME280_temperature;BME280_humidity;BME280_pressure;Samples;Min_cycle;Max_cycle;Signal;HPM_P1;HPM_P2
2022/09/07 00:00:26;;;;;;;9.27;5.93;;;;;;;17.23;97.42;95171.94;5061615;28;20205;-76
2022/09/07 00:02:53;;;;;;;13.30;6.50;;;;;;;17.24;97.53;95176.94;5060629;28;20622;-74
2022/09/07 00:05:20;;;;;;;10.97;6.60;;;;;;;17.17;97.56;95176.31;5060852;28;20248;-76
2022/09/07 00:07:47;;;;;;;9.00;6.30;;;;;;;17.15;98.28;95174.97;5062798;28;20209;-75
2022/09/07 00:10:14;;;;;;;10.87;6.27;;;;;;;17.14;97.57;95178.66;5061175;28;20221;-76
2022/09/07 00:12:57;;;;;;;9.37;5.93;;;;;;;16.99;98.16;95181.91;5062877;28;21258;-76
2022/09/07 00:15:25;;;;;;;6.90;6.20;;;;;;;16.85;99.06;95175.41;5062082;28;20740;-76
2022/09/07 00:17:52;;;;;;;11.43;6.37;;;;;;;16.83;100.00;95180.91;5062780;28;20205;-76
2022/09/07 00:20:19;;;;;;;12.57;6.90;;;;;;;16.82;100.00;95181.94;5060849;28;20205;-76
2022/09/07 00:22:46;;;;;;;14.60;6.43;;;;;;;16.82;100.00;95181.16;5062708;28;20270;-75
2022/09/07 00:25:13;;;;;;;11.40;6.50;;;;;;;16.84;100.00;95173.81;5062463;28;20877;-75
2022/09/07 00:27:40;;;;;;;11.00;6.57;;;;;;;16.85;100.00;95170.16;5062699;28;20197;-74
2022/09/07 00:30:08;;;;;;;11.30;5.73;;;;;;;16.82;100.00;95170.66;5062754;28;20205;-76
2022/09/07 00:32:36;;;;;;;10.33;6.07;;;;;;;16.83;100.00;95167.78;5062589;28;20212;-75
2022/09/07 00:35:03;;;;;;;9.57;6.43;;;;;;;16.87;99.17;95168.09;5062156;28;20224;-75
2022/09/07 00:37:30;;;;;;;11.43;5.90;;;;;;;16.84;99.09;95168.56;5061206;28;20232;-76
2022/09/07 00:39:57;;;;;;;9.20;6.10;;;;;;;16.87;99.08;95173.34;5059520;28;20221;-75
2022/09/07 00:42:23;;;;;;;10.90;6.50;;;;;;;16.88;99.02;95183.56;5064295;28;20209;-75
2022/09/07 00:45:10;;;;;;;7.93;6.03;;;;;;;16.85;99.34;95170.16;5065042;28;20205;-75
2022/09/07 00:47:47;;;;;;;9.97;6.13;;;;;;;16.81;98.94;95185.59;5063899;28;20249;-75
2022/09/07 00:50:20;;;;;;;20.37;15.27;;;;;;;16.65;98.84;95162.81;5065147;28;20208;-75
2022/09/07 00:52:48;;;;;;;24.67;19.60;;;;;;;16.72;98.41;95175.75;5064858;28;20216;-75
2022/09/07 00:55:18;;;;;;;21.00;17.00;;;;;;;16.70;97.77;95175.22;5064801;28;20209;-75
2022/09/07 00:57:48;;;;;;;21.33;15.10;;;;;;;16.59;97.86;95169.06;5066856;28;20229;-75
2022/09/07 01:00:15;;;;;;;20.87;13.77;;;;;;;16.51;98.56;95172.03;5067053;28;20208;-75
2022/09/07 01:02:44;;;;;;;14.47;11.63;;;;;;;16.53;98.55;95169.19;5065337;28;20236;-74
2022/09/07 01:05:25;;;;;;;11.97;9.90;;;;;;;16.47;98.18;95165.69;5064980;28;20212;-75
2022/09/07 01:07:55;;;;;;;13.57;8.23;;;;;;;16.47;98.29;95163.06;5065245;28;21066;-75
2022/09/07 01:10:25;;;;;;;10.57;8.07;;;;;;;16.45;97.97;95163.28;5064431;28;20733;-75
2022/09/07 01:12:52;;;;;;;12.63;8.10;;;;;;;16.50;98.27;95156.53;5063895;28;20208;-74
2022/09/07 01:15:21;;;;;;;11.77;8.30;;;;;;;16.48;98.85;95159.41;5064616;28;20198;-75
2022/09/07 01:18:02;;;;;;;11.37;7.93;;;;;;;16.42;98.94;95148.03;5063505;28;20227;-76
2022/09/07 01:20:49;;;;;;;13.80;7.60;;;;;;;16.49;98.36;95161.00;5061661;28;20201;-76
2022/09/07 01:24:01;;;;;;;9.00;6.97;;;;;;;16.48;98.30;95166.50;5063656;28;20212;-75
2022/09/07 01:27:16;;;;;;;9.13;6.57;;;;;;;16.47;98.08;95157.81;5063247;28;20209;-75
2022/09/07 01:29:55;;;;;;;9.03;6.50;;;;;;;16.46;98.15;95157.03;5064207;28;20205;-75
2022/09/07 01:32:31;;;;;;;10.43;6.80;;;;;;;16.43;98.13;95159.31;5065200;28;20205;-73
2022/09/07 01:35:01;;;;;;;8.37;6.70;;;;;;;16.41;98.02;95153.53;5065567;28;20193;-73
2022/09/07 01:37:37;;;;;;;11.17;6.97;;;;;;;16.34;97.91;95152.91;5065186;28;20229;-73
2022/09/07 01:40:11;;;;;;;10.83;6.90;;;;;;;16.31;98.41;95156.81;5065529;28;20212;-73
2022/09/07 01:42:49;;;;;;;8.80;7.43;;;;;;;16.31;98.71;95158.63;5064671;28;20263;-74
2022/09/07 01:45:21;;;;;;;12.67;7.43;;;;;;;16.29;99.19;95160.69;5064317;28;20296;-73
2022/09/07 01:47:52;;;;;;;9.87;7.47;;;;;;;16.17;100.00;95155.56;5064978;28;20193;-74
2022/09/07 01:50:27;;;;;;;12.00;7.03;;;;;;;15.98;100.00;95137.69;5061892;28;20213;-74
2022/09/07 01:52:58;;;;;;;8.50;6.80;;;;;;;16.10;100.00;95156.75;5061557;28;20258;-73
2022/09/07 01:55:32;;;;;;;9.97;7.10;;;;;;;16.08;100.00;95158.81;5064616;28;20201;-73
2022/09/07 01:58:08;;;;;;;11.50;7.30;;;;;;;16.19;99.59;95160.56;5062493;28;20906;-73
2022/09/07 02:00:40;;;;;;;7.00;6.30;;;;;;;16.16;100.00;95155.81;5064330;28;20204;-74
2022/09/07 02:03:13;;;;;;;9.53;7.03;;;;;;;16.22;99.98;95155.63;5063235;28;20208;-74
2022/09/07 02:05:45;;;;;;;8.97;6.83;;;;;;;16.17;99.91;95155.56;5064448;28;20206;-73
2022/09/07 02:08:14;;;;;;;11.27;7.43;;;;;;;16.10;99.67;95151.50;5063788;28;20231;-74
2022/09/07 02:10:46;;;;;;;11.93;7.40;;;;;;;16.03;100.00;95145.63;5063462;28;20209;-74
2022/09/07 02:13:18;;;;;;;12.17;7.73;;;;;;;16.02;100.00;95150.06;5063177;28;20215;-74
2022/09/07 02:15:52;;;;;;;8.87;6.53;;;;;;;15.93;100.00;95148.88;5065270;28;21066;-74
2022/09/07 02:18:23;;;;;;;9.77;6.80;;;;;;;15.85;99.98;95147.44;5064272;28;20217;-74
2022/09/07 02:20:54;;;;;;;11.30;6.87;;;;;;;15.71;100.00;95135.69;5061983;28;20209;-74
2022/09/07 02:23:26;;;;;;;11.17;6.67;;;;;;;15.75;100.00;95143.88;5062646;28;21546;-74
2022/09/07 02:25:55;;;;;;;13.00;7.10;;;;;;;15.74;100.00;95148.31;5063004;28;20208;-74
2022/09/07 02:28:27;;;;;;;12.03;7.40;;;;;;;15.59;100.00;95134.16;5063758;28;20212;-76
2022/09/07 02:30:56;;;;;;;13.77;6.83;;;;;;;15.74;100.00;95152.78;5064535;28;20205;-76
2022/09/07 02:33:23;;;;;;;9.97;7.00;;;;;;;15.82;100.00;95141.88;5063737;28;20204;-76
2022/09/07 02:35:50;;;;;;;10.67;6.90;;;;;;;15.85;100.00;95146.66;5064247;28;20204;-75
2022/09/07 02:38:18;;;;;;;12.70;7.27;;;;;;;15.82;100.00;95141.88;5063407;28;20241;-76
2022/09/07 02:40:51;;;;;;;12.13;7.07;;;;;;;15.79;100.00;95135.28;5062919;28;20205;-75
2022/09/07 02:43:20;;;;;;;10.57;7.47;;;;;;;15.76;100.00;95140.22;5061994;28;20746;-75
2022/09/07 02:46:03;;;;;;;10.97;7.00;;;;;;;15.70;100.00;95144.56;5062883;28;20221;-75
2022/09/07 02:48:41;;;;;;;8.37;7.20;;;;;;;15.71;100.00;95140.94;5063541;28;20202;-74
2022/09/07 02:51:18;;;;;;;10.40;7.57;;;;;;;15.71;100.00;95142.75;5064208;28;20204;-75
2022/09/07 02:54:23;;;;;;;12.60;7.50;;;;;;;15.71;100.00;95143.56;5063778;28;20659;-75
2022/09/07 02:57:03;;;;;;;12.27;6.90;;;;;;;15.73;100.00;95146.72;5047626;28;20691;-75
2022/09/07 02:59:42;;;;;;;9.73;6.40;;;;;;;15.71;100.00;95148.78;5061776;28;20209;-75
2022/09/07 03:02:17;;;;;;;10.23;6.83;;;;;;;15.71;100.00;95151.41;5062853;28;20667;-75
2022/09/07 03:04:50;;;;;;;10.97;6.93;;;;;;;15.75;100.00;95152.53;5063041;28;20715;-75
2022/09/07 03:07:22;;;;;;;11.10;6.63;;;;;;;15.68;100.00;95153.72;5062547;28;20206;-75
2022/09/07 03:09:53;;;;;;;9.83;6.57;;;;;;;15.61;100.00;95153.84;5063179;28;20232;-75
2022/09/07 03:12:21;;;;;;;14.37;7.00;;;;;;;15.59;100.00;95155.13;5059989;28;20205;-74
2022/09/07 03:14:48;;;;;;;11.17;7.40;;;;;;;15.53;100.00;95151.63;5059871;28;20293;-74
2022/09/07 03:17:16;;;;;;;14.43;6.70;;;;;;;15.58;100.00;95151.75;5062308;28;20248;-75
2022/09/07 03:19:43;;;;;;;12.23;6.73;;;;;;;15.58;100.00;95146.50;5062850;28;20209;-74
2022/09/07 03:22:12;;;;;;;12.33;6.60;;;;;;;15.51;100.00;95151.06;5061258;28;20217;-75
2022/09/07 03:24:39;;;;;;;10.90;7.47;;;;;;;15.46;100.00;95145.72;5062749;28;20213;-74
2022/09/07 03:27:05;;;;;;;8.93;6.83;;;;;;;15.44;100.00;95150.38;5063441;28;20197;-74
2022/09/07 03:29:32;;;;;;;9.67;7.20;;;;;;;15.37;100.00;95146.34;5063562;28;20263;-74
2022/09/07 03:31:59;;;;;;;11.43;7.20;;;;;;;15.35;100.00;95155.22;5062301;28;20208;-74
2022/09/07 03:34:27;;;;;;;11.83;7.13;;;;;;;15.36;100.00;95153.38;5062842;28;20217;-75
2022/09/07 03:36:54;;;;;;;12.73;7.77;;;;;;;15.38;100.00;95158.41;5061654;28;20232;-75
2022/09/07 03:39:22;;;;;;;11.73;7.70;;;;;;;15.41;100.00;95157.94;5062418;28;20688;-75
2022/09/07 03:41:49;;;;;;;12.93;7.80;;;;;;;15.37;100.00;95168.09;5061275;28;20263;-77
2022/09/07 03:44:16;;;;;;;8.80;7.20;;;;;;;15.34;100.00;95171.16;5061387;28;20624;-75
2022/09/07 03:46:43;;;;;;;13.20;8.40;;;;;;;15.32;100.00;95162.75;5062671;28;20209;-75
2022/09/07 03:49:10;;;;;;;15.63;7.37;;;;;;;15.37;100.00;95168.09;5062491;28;20589;-75
2022/09/07 03:51:38;;;;;;;15.77;7.57;;;;;;;15.32;100.00;95165.38;5062256;28;20223;-75
2022/09/07 03:54:05;;;;;;;13.47;7.63;;;;;;;15.31;100.00;95169.81;5062203;28;20239;-75
2022/09/07 03:56:33;;;;;;;10.93;7.40;;;;;;;15.25;100.00;95168.13;5062187;28;20209;-75
2022/09/07 03:58:59;;;;;;;9.43;7.23;;;;;;;15.19;100.00;95170.88;5062346;28;20327;-75
2022/09/07 04:01:27;;;;;;;13.00;7.63;;;;;;;15.19;100.00;95169.06;5062045;28;20825;-75
2022/09/07 04:03:57;;;;;;;13.33;8.07;;;;;;;15.20;100.00;95169.88;5060588;28;20971;-74
2022/09/07 04:06:25;;;;;;;13.30;7.57;;;;;;;15.17;100.00;95168.50;5062136;28;20209;-74
2022/09/07 04:08:55;;;;;;;14.50;7.97;;;;;;;15.20;100.00;95178.53;5062255;28;20198;-74
2022/09/07 04:11:22;;;;;;;23.30;7.90;;;;;;;15.19;100.00;95171.69;5059458;28;20205;-74
2022/09/07 04:13:49;;;;;;;19.53;8.70;;;;;;;15.11;100.00;95176.50;5062186;28;20212;-74
2022/09/07 04:16:18;;;;;;;13.80;8.10;;;;;;;15.09;100.00;95178.56;5064601;28;20722;-74
2022/09/07 04:18:46;;;;;;;15.47;8.50;;;;;;;15.11;100.00;95182.53;5063887;28;20232;-74
2022/09/07 04:21:13;;;;;;;11.10;8.13;;;;;;;15.14;100.00;95179.44;5065262;28;20209;-73
2022/09/07 04:23:41;;;;;;;17.60;8.43;;;;;;;15.11;100.00;95174.69;5065686;28;20218;-73
2022/09/07 04:26:14;;;;;;;15.33;7.73;;;;;;;15.12;100.00;95178.09;5044350;28;20232;-74
2022/09/07 04:28:42;;;;;;;18.23;8.83;;;;;;;15.10;100.00;95186.16;5064660;28;20211;-74
2022/09/07 04:31:10;;;;;;;13.27;8.13;;;;;;;15.13;100.00;95177.03;5064184;28;20210;-74
2022/09/07 04:33:37;;;;;;;19.10;8.97;;;;;;;15.24;100.00;95178.81;5065393;28;20217;-74
2022/09/07 04:36:04;;;;;;;17.67;8.80;;;;;;;15.28;100.00;95182.56;5065054;28;20208;-74
2022/09/07 04:38:32;;;;;;;14.73;8.60;;;;;;;15.30;100.00;95181.31;5063241;28;20316;-73
2022/09/07 04:41:00;;;;;;;12.30;8.10;;;;;;;15.33;100.00;95182.66;5064057;28;20201;-74
2022/09/07 04:43:30;;;;;;;10.90;8.37;;;;;;;15.36;100.00;95187.44;5064915;28;20643;-73
2022/09/07 04:45:57;;;;;;;12.33;8.27;;;;;;;15.33;100.00;95191.31;5064181;28;20204;-74
2022/09/07 04:48:24;;;;;;;12.40;8.60;;;;;;;15.34;100.00;95187.69;5064738;28;20240;-75
2022/09/07 04:50:52;;;;;;;16.80;8.07;;;;;;;15.35;100.00;95191.88;5064679;28;20198;-73
2022/09/07 04:53:19;;;;;;;16.83;8.50;;;;;;;15.31;100.00;95189.97;5063411;28;20213;-73
2022/09/07 04:55:45;;;;;;;22.33;8.90;;;;;;;15.29;100.00;95194.66;5063894;28;20213;-74
2022/09/07 04:58:12;;;;;;;13.37;8.80;;;;;;;15.22;100.00;95193.97;5064910;28;20310;-74
2022/09/07 05:00:41;;;;;;;13.47;8.30;;;;;;;15.14;100.00;95189.13;5064772;28;20213;-74
2022/09/07 05:03:07;;;;;;;16.60;8.10;;;;;;;14.87;100.00;95194.06;5064876;28;20209;-74
2022/09/07 05:05:37;;;;;;;12.67;8.10;;;;;;;14.83;100.00;95207.88;5066340;28;20203;-78
2022/09/07 05:08:04;;;;;;;12.90;8.80;;;;;;;14.59;100.00;95197.44;5064534;28;20296;-74
2022/09/07 05:10:30;;;;;;;12.73;8.23;;;;;;;14.53;100.00;95200.16;5063801;28;20217;-74
2022/09/07 05:13:01;;;;;;;14.57;8.47;;;;;;;14.41;100.00;95201.97;5062759;28;20328;-73
2022/09/07 05:15:29;;;;;;;18.33;8.27;;;;;;;14.38;100.00;95198.00;5063458;28;20250;-73
2022/09/07 05:17:58;;;;;;;15.20;8.63;;;;;;;14.48;100.00;95192.19;5063829;28;20305;-74
2022/09/07 05:20:25;;;;;;;14.17;8.13;;;;;;;14.47;100.00;95196.63;5062623;28;20672;-73
2022/09/07 05:22:58;;;;;;;12.60;7.83;;;;;;;14.61;100.00;95205.84;5062548;28;20197;-74
2022/09/07 05:25:25;;;;;;;14.00;8.60;;;;;;;14.75;100.00;95203.75;5059762;28;20205;-73
2022/09/07 05:27:52;;;;;;;9.93;7.57;;;;;;;14.86;100.00;95204.78;5061536;28;20680;-74
2022/09/07 05:30:19;;;;;;;13.70;7.63;;;;;;;14.96;100.00;95194.50;5062971;28;20223;-74
2022/09/07 05:32:46;;;;;;;14.07;7.77;;;;;;;15.02;100.00;95193.59;5063492;28;20209;-74
2022/09/07 05:35:15;;;;;;;12.73;8.17;;;;;;;15.01;100.00;95202.47;5063930;28;20209;-74
2022/09/07 05:37:42;;;;;;;18.33;7.87;;;;;;;15.03;100.00;95188.13;5064544;28;20229;-74
2022/09/07 05:40:10;;;;;;;20.67;8.80;;;;;;;15.19;100.00;95195.25;5063974;28;20220;-74
2022/09/07 05:42:36;;;;;;;11.70;8.70;;;;;;;15.22;100.00;95193.97;5063606;28;20205;-74
2022/09/07 05:45:04;;;;;;;12.63;8.17;;;;;;;15.25;100.00;95181.22;5064254;28;20220;-78
2022/09/07 05:47:31;;;;;;;14.37;8.20;;;;;;;15.32;100.00;95192.34;5062332;28;20205;-72
2022/09/07 05:49:58;;;;;;;13.33;8.70;;;;;;;15.33;100.00;95186.09;5061218;28;20213;-74
2022/09/07 05:52:26;;;;;;;23.03;14.83;;;;;;;15.45;100.00;95193.09;5063649;28;20225;-74
2022/09/07 05:54:53;;;;;;;14.33;9.33;;;;;;;15.42;100.00;95191.75;5063108;28;20205;-76
2022/09/07 05:57:20;;;;;;;16.53;8.30;;;;;;;15.52;99.72;95183.31;5060377;28;20276;-77
2022/09/07 05:59:46;;;;;;;11.40;7.23;;;;;;;15.66;98.18;95193.28;5061102;28;20205;-74
2022/09/07 06:02:14;;;;;;;11.20;7.60;;;;;;;15.72;99.02;95194.16;5062745;28;20216;-74
2022/09/07 06:04:41;;;;;;;12.63;7.73;;;;;;;15.81;98.20;95192.75;5062170;28;20204;-74
2022/09/07 06:07:10;;;;;;;11.43;6.83;;;;;;;15.91;97.31;95190.28;5062543;28;20217;-74
2022/09/07 06:09:39;;;;;;;16.07;7.60;;;;;;;15.88;96.18;95190.75;5063135;28;20209;-74
2022/09/07 06:12:06;;;;;;;15.00;7.73;;;;;;;15.89;94.90;95201.00;5061060;28;20598;-74
2022/09/07 06:14:33;;;;;;;15.03;9.17;;;;;;;15.98;95.61;95195.38;5061621;28;20198;-73
2022/09/07 06:17:00;;;;;;;13.40;6.60;;;;;;;16.06;94.71;95198.38;5061466;28;20237;-73
2022/09/07 06:19:27;;;;;;;15.10;5.43;;;;;;;16.15;91.68;95196.16;5061878;28;20221;-74
2022/09/07 06:21:53;;;;;;;16.43;6.07;;;;;;;16.21;89.93;95196.00;5061850;28;20640;-74
2022/09/07 06:24:20;;;;;;;10.67;5.23;;;;;;;16.23;89.89;95201.81;5060655;28;20206;-74
2022/09/07 06:26:48;;;;;;;9.83;5.00;;;;;;;16.33;89.22;95196.69;5059715;28;20201;-74
2022/09/07 06:29:15;;;;;;;5.97;4.20;;;;;;;16.40;88.14;95205.22;5060971;28;20216;-74
2022/09/07 06:31:42;;;;;;;8.87;4.40;;;;;;;16.46;86.14;95203.44;5060461;28;20197;-73
2022/09/07 06:34:09;;;;;;;9.43;4.63;;;;;;;16.53;85.60;95203.28;5060333;28;20216;-74
2022/09/07 06:36:36;;;;;;;7.83;4.37;;;;;;;16.57;85.53;95217.53;5061541;28;20246;-74
2022/09/07 06:39:02;;;;;;;6.90;4.00;;;;;;;16.63;85.24;95209.50;5060069;28;20232;-77
2022/09/07 06:41:30;;;;;;;5.53;4.10;;;;;;;16.69;85.32;95205.91;5062909;28;20190;-73
2022/09/07 06:43:58;;;;;;;12.37;4.07;;;;;;;16.72;83.89;95215.94;5060601;28;20209;-76
2022/09/07 06:46:25;;;;;;;7.70;4.20;;;;;;;16.70;83.10;95191.75;5061889;28;20221;-74
2022/09/07 06:48:53;;;;;;;5.67;4.00;;;;;;;16.84;83.28;95211.38;5062295;28;20729;-74
2022/09/07 06:51:25;;;;;;;10.30;4.13;;;;;;;16.84;81.41;95200.06;5064128;28;20647;-74
2022/09/07 06:53:55;;;;;;;10.57;4.20;;;;;;;16.97;81.24;95223.34;5061122;28;20202;-74
2022/09/07 06:56:22;;;;;;;8.17;4.00;;;;;;;17.00;81.77;95218.41;5065310;28;20200;-74
2022/09/07 06:58:53;;;;;;;7.00;4.20;;;;;;;16.97;81.57;95220.72;5062952;28;20217;-74
2022/09/07 07:01:23;;;;;;;7.73;4.80;;;;;;;17.00;81.10;95223.66;5060931;28;20292;-75
2022/09/07 07:03:51;;;;;;;8.00;4.20;;;;;;;17.08;81.11;95225.09;5061885;28;20285;-76
2022/09/07 07:06:18;;;;;;;6.80;4.03;;;;;;;17.18;80.64;95232.28;5061331;28;20205;-75
2022/09/07 07:08:45;;;;;;;5.70;4.10;;;;;;;17.27;79.64;95221.09;5065732;28;20324;-75
2022/09/07 07:11:13;;;;;;;6.37;4.20;;;;;;;17.27;78.83;95215.06;5064509;28;20208;-74
2022/09/07 07:13:43;;;;;;;8.63;4.17;;;;;;;17.38;79.05;95222.00;5061890;28;20201;-74
2022/09/07 07:16:12;;;;;;;7.13;4.57;;;;;;;17.32;78.85;95217.72;5063587;28;20315;-76
2022/09/07 07:18:41;;;;;;;7.77;4.23;;;;;;;17.43;78.67;95216.81;5061247;28;20221;-76
2022/09/07 07:21:10;;;;;;;8.87;3.60;;;;;;;17.50;77.99;95223.47;5060418;28;20819;-75
2022/09/07 07:23:37;;;;;;;8.70;3.50;;;;;;;17.57;75.65;95220.69;5063317;28;20779;-75
2022/09/07 07:26:05;;;;;;;9.83;3.67;;;;;;;17.60;75.58;95220.19;5064963;28;20600;-75
2022/09/07 07:28:33;;;;;;;8.70;4.17;;;;;;;17.69;76.05;95223.19;5061770;28;20190;-76
2022/09/07 07:31:01;;;;;;;11.30;4.18;;;;;;;17.78;76.46;95221.66;5062660;28;20312;-74
2022/09/07 07:33:30;;;;;;;4.93;3.80;;;;;;;17.89;75.19;95224.13;5064390;28;20193;-76
2022/09/07 07:36:12;;;;;;;6.10;3.90;;;;;;;17.90;74.79;95231.00;5063747;28;21458;-76
2022/09/07 07:38:39;;;;;;;8.70;4.20;;;;;;;17.88;74.87;95229.66;5063895;28;20318;-80
2022/09/07 07:41:06;;;;;;;7.00;4.00;;;;;;;17.89;75.51;95229.41;5063195;28;20250;-73
2022/09/07 07:43:34;;;;;;;8.53;4.10;;;;;;;17.96;76.35;95223.94;5061837;28;20287;-73
2022/09/07 07:46:01;;;;;;;11.23;4.20;;;;;;;18.11;74.54;95226.72;5064015;28;20201;-73
2022/09/07 07:48:28;;;;;;;6.77;3.90;;;;;;;18.09;74.84;95220.94;5064878;28;20193;-73
2022/09/07 07:50:59;;;;;;;5.83;3.70;;;;;;;18.20;75.78;95229.69;5053064;28;20209;-74
2022/09/07 07:53:28;;;;;;;6.95;3.78;;;;;;;18.29;74.49;95231.63;5064084;28;20236;-73
2022/09/07 07:55:58;;;;;;;6.77;3.73;;;;;;;18.35;73.52;95229.81;5065021;28;20808;-74
2022/09/07 07:58:25;;;;;;;8.50;4.20;;;;;;;18.46;73.25;95228.84;5065928;28;20278;-73
2022/09/07 08:00:52;;;;;;;9.60;4.00;;;;;;;18.40;73.12;95230.66;5069705;28;20251;-73
2022/09/07 08:03:19;;;;;;;10.10;4.03;;;;;;;18.42;73.80;95227.75;5068581;28;20201;-75
2022/09/07 08:05:46;;;;;;;15.27;4.03;;;;;;;18.39;74.17;95220.34;5067611;28;20683;-75
2022/09/07 08:08:14;;;;;;;7.80;4.22;;;;;;;18.43;73.85;95231.97;5065063;28;20696;-75
2022/09/07 08:10:42;;;;;;;8.00;4.25;;;;;;;18.51;73.74;95224.44;5063730;28;20325;-75
2022/09/07 08:13:09;;;;;;;6.82;4.07;;;;;;;18.59;73.80;95220.53;5070177;28;20209;-75
2022/09/07 08:15:43;;;;;;;9.70;4.30;;;;;;;18.60;73.94;95208.97;5066632;28;20225;-75
2022/09/07 08:18:11;;;;;;;9.80;4.20;;;;;;;18.77;74.11;95222.75;5065648;28;20866;-75
2022/09/07 08:20:38;;;;;;;6.72;4.30;;;;;;;18.93;73.69;95223.66;5068818;28;21568;-75
2022/09/07 08:23:07;;;;;;;9.02;3.97;;;;;;;19.03;73.85;95218.41;5070646;28;20207;-76
2022/09/07 08:25:34;;;;;;;11.90;4.22;;;;;;;19.13;72.85;95218.47;5067999;28;20214;-76
2022/09/07 08:28:04;;;;;;;5.82;4.57;;;;;;;19.19;71.82;95223.50;5063961;28;20209;-74
2022/09/07 08:30:31;;;;;;;7.57;4.50;;;;;;;19.30;72.56;95223.53;5064927;28;20285;-75
2022/09/07 08:32:58;;;;;;;5.93;4.25;;;;;;;19.43;71.25;95223.09;5064887;28;20218;-75
2022/09/07 08:35:24;;;;;;;6.65;3.90;;;;;;;19.50;71.12;95211.25;5065519;28;20209;-75
2022/09/07 08:37:51;;;;;;;9.77;4.75;;;;;;;19.68;70.28;95215.28;5066489;28;20197;-75
2022/09/07 08:40:19;;;;;;;5.60;3.83;;;;;;;19.74;70.61;95209.72;5068183;28;20225;-75
2022/09/07 08:42:59;;;;;;;6.72;4.10;;;;;;;19.86;70.39;95201.56;5064985;28;20370;-74
2022/09/07 08:45:31;;;;;;;7.40;4.65;;;;;;;20.05;69.46;95199.22;5064707;28;20202;-75
2022/09/07 08:47:58;;;;;;;8.60;5.05;;;;;;;20.08;67.98;95182.88;5066319;28;20193;-75
2022/09/07 08:50:32;;;;;;;12.23;5.38;;;;;;;20.28;68.01;95196.88;5069898;28;20225;-75
2022/09/07 08:53:03;;;;;;;10.20;4.45;;;;;;;20.34;68.48;95193.19;5066175;28;20194;-75
2022/09/07 08:55:33;;;;;;;10.18;4.38;;;;;;;20.45;67.63;95204.53;5063657;28;20204;-75
2022/09/07 08:58:09;;;;;;;8.18;4.30;;;;;;;20.56;67.97;95181.53;5069845;28;20228;-75
2022/09/07 09:00:38;;;;;;;9.88;4.25;;;;;;;20.70;67.57;95188.63;5065697;28;20234;-74
2022/09/07 09:03:07;;;;;;;8.07;4.30;;;;;;;20.79;66.77;95178.31;5065497;28;21113;-76
2022/09/07 09:05:44;;;;;;;10.77;4.82;;;;;;;20.93;66.52;95182.75;5065895;28;20209;-76
2022/09/07 09:08:29;;;;;;;6.38;4.38;;;;;;;21.12;66.07;95182.22;5067466;28;20221;-75
2022/09/07 09:11:04;;;;;;;7.38;4.30;;;;;;;21.32;65.51;95180.28;5067287;28;20240;-81
2022/09/07 09:13:44;;;;;;;9.27;4.60;;;;;;;21.45;65.07;95182.31;5067462;28;20197;-76
2022/09/07 09:16:20;;;;;;;7.78;4.38;;;;;;;21.61;64.57;95169.00;5057129;28;20320;-77
2022/09/07 09:19:00;;;;;;;9.30;4.82;;;;;;;21.80;64.33;95169.94;5065823;28;20214;-76
2022/09/07 09:21:29;;;;;;;11.45;4.80;;;;;;;22.03;63.87;95177.22;5063714;28;20730;-74
2022/09/07 09:24:05;;;;;;;7.72;4.55;;;;;;;22.20;61.77;95166.22;5063424;28;20193;-75
2022/09/07 09:26:34;;;;;;;5.00;4.15;;;;;;;22.44;62.20;95170.53;5064256;28;20379;-75
2022/09/07 09:29:13;;;;;;;12.48;4.38;;;;;;;22.66;59.95;95170.06;5063928;28;20194;-76
2022/09/07 09:31:41;;;;;;;6.00;4.32;;;;;;;22.84;58.65;95165.91;5063474;28;20372;-77
2022/09/07 09:34:12;;;;;;;6.88;4.45;;;;;;;23.02;59.17;95146.63;5063192;28;20198;-75
2022/09/07 09:36:45;;;;;;;6.00;4.28;;;;;;;23.34;58.92;95161.88;5064209;28;20293;-75
2022/09/07 09:39:25;;;;;;;8.27;4.10;;;;;;;23.51;57.07;95151.59;5064373;28;20255;-75
2022/09/07 09:41:54;;;;;;;6.55;4.68;;;;;;;23.84;55.65;95160.44;5064781;28;20201;-76
2022/09/07 09:44:22;;;;;;;6.63;4.53;;;;;;;24.08;56.02;95155.78;5066154;28;20193;-75
2022/09/07 09:46:53;;;;;;;6.68;4.82;;;;;;;24.31;55.11;95165.56;5062267;28;20202;-75
2022/09/07 09:49:24;;;;;;;7.95;4.43;;;;;;;24.46;54.49;95152.00;5063642;28;20199;-75
2022/09/07 09:51:55;;;;;;;9.52;4.10;;;;;;;24.70;52.66;95160.59;5063992;28;20247;-76
2022/09/07 09:54:27;;;;;;;11.93;4.68;;;;;;;24.93;52.83;95156.25;5063379;28;20281;-76
2022/09/07 09:56:54;;;;;;;10.48;4.30;;;;;;;25.17;52.72;95146.16;5066028;28;20286;-76
2022/09/07 09:59:26;;;;;;;6.30;4.25;;;;;;;25.45;52.42;95146.13;5067280;28;20229;-75
2022/09/07 10:01:55;;;;;;;9.20;4.32;;;;;;;25.69;51.94;95144.03;5054982;28;20205;-76
2022/09/07 10:04:32;;;;;;;8.77;4.60;;;;;;;25.96;51.87;95151.94;5062638;28;20212;-75
2022/09/07 10:07:08;;;;;;;6.82;4.78;;;;;;;26.23;50.48;95138.53;5063343;28;20196;-75
2022/09/07 10:09:37;;;;;;;5.95;4.18;;;;;;;26.47;48.42;95146.97;5063524;28;20239;-75
2022/09/07 10:12:05;;;;;;;5.57;4.03;;;;;;;26.57;47.83;95147.81;5062009;28;20339;-76
2022/09/07 10:14:36;;;;;;;5.32;4.00;;;;;;;26.95;46.20;95143.63;5063439;28;21042;-75
2022/09/07 10:17:13;;;;;;;7.78;4.03;;;;;;;27.04;45.98;95137.19;5063059;28;20260;-75
2022/09/07 10:19:43;;;;;;;6.57;4.63;;;;;;;27.19;46.29;95135.19;5064968;28;20221;-75
2022/09/07 10:22:34;;;;;;;4.65;4.00;;;;;;;27.28;45.65;95128.00;5067952;28;20284;-75
2022/09/07 10:25:02;;;;;;;6.75;3.63;;;;;;;27.32;45.55;95139.66;5064874;28;20660;-75
2022/09/07 10:27:33;;;;;;;4.55;3.95;;;;;;;27.53;45.09;95132.66;5062982;28;20212;-75
2022/09/07 10:30:00;;;;;;;4.97;3.70;;;;;;;27.63;45.92;95120.84;5063622;28;20200;-75
2022/09/07 10:32:48;;;;;;;5.38;4.20;;;;;;;27.95;45.06;95117.72;5063100;28;20571;-75
2022/09/07 10:35:21;;;;;;;5.15;3.90;;;;;;;28.21;43.47;95120.38;5063599;28;20204;-74
2022/09/07 10:37:57;;;;;;;8.57;3.97;;;;;;;28.38;43.97;95115.00;5062310;28;20221;-75
2022/09/07 10:40:31;;;;;;;5.20;4.05;;;;;;;28.71;43.86;95116.06;5061636;28;20356;-75
2022/09/07 10:43:12;;;;;;;6.53;3.78;;;;;;;28.26;43.18;95114.88;5062832;28;20287;-75
2022/09/07 10:45:52;;;;;;;5.43;3.78;;;;;;;28.56;43.28;95109.31;5060741;28;20785;-75
2022/09/07 10:48:31;;;;;;;6.15;3.95;;;;;;;29.04;43.10;95111.63;5062522;28;20208;-75
2022/09/07 10:51:02;;;;;;;6.10;4.05;;;;;;;29.08;40.21;95112.56;5061725;28;20274;-74
2022/09/07 10:53:54;;;;;;;6.45;3.63;;;;;;;29.14;40.62;95110.50;5062671;28;20216;-75
2022/09/07 10:56:25;;;;;;;5.72;3.95;;;;;;;29.23;41.00;95112.06;5061294;28;20209;-75
2022/09/07 10:59:05;;;;;;;5.43;3.65;;;;;;;29.49;39.28;95108.41;5060513;28;20206;-75
2022/09/07 11:01:47;;;;;;;9.60;4.00;;;;;;;29.60;38.73;95096.19;5062311;28;20594;-75
2022/09/07 11:04:45;;;;;;;7.95;3.60;;;;;;;29.67;39.45;95101.81;5062733;28;20677;-75
2022/09/07 11:07:25;;;;;;;5.22;3.67;;;;;;;29.86;38.94;95098.69;5063117;28;20224;-76
2022/09/07 11:10:02;;;;;;;5.00;3.55;;;;;;;30.03;39.16;95106.59;5063102;28;20197;-75
2022/09/07 11:12:33;;;;;;;4.55;3.90;;;;;;;30.38;39.62;95105.19;5061410;28;20199;-76
2022/09/07 11:15:15;;;;;;;5.53;3.70;;;;;;;30.29;39.28;95097.19;5061499;28;20197;-76
2022/09/07 11:17:46;;;;;;;7.00;3.88;;;;;;;30.15;37.93;95099.38;5061686;28;20208;-75
2022/09/07 11:20:22;;;;;;;5.25;3.60;;;;;;;29.56;38.27;95088.03;5062307;28;20201;-76
2022/09/07 11:22:53;;;;;;;8.00;3.72;;;;;;;29.63;38.66;95084.81;5059343;28;20336;-75
2022/09/07 11:25:25;;;;;;;10.27;4.20;;;;;;;29.85;39.16;95079.16;5060463;28;20209;-77
2022/09/07 11:27:55;;;;;;;4.50;3.80;;;;;;;30.05;38.54;95086.38;5065083;28;20198;-75
2022/09/07 11:30:27;;;;;;;5.68;3.97;;;;;;;30.28;38.12;95074.16;5067164;28;20200;-76
2022/09/07 11:33:07;;;;;;;5.60;3.60;;;;;;;30.58;38.27;95074.00;5063059;28;20201;-76
2022/09/07 11:35:45;;;;;;;5.60;4.00;;;;;;;31.06;38.80;95084.00;5062086;28;20914;-76
2022/09/07 11:38:24;;;;;;;6.72;4.53;;;;;;;31.29;36.76;95091.25;5062200;28;20802;-75
2022/09/07 11:40:59;;;;;;;8.88;3.80;;;;;;;31.54;35.49;95085.88;5064476;28;20278;-76
2022/09/07 11:43:31;;;;;;;5.03;3.42;;;;;;;31.36;36.32;95072.69;5060943;28;20251;-76